sensor_id;sensor_type;location;lat;lon;timestamp;pressure;altitude;pressure_sealevel;temperature;humidity
51986;BME280;38002;53.296;6.600;2023-02-19T00:03:06;101703.94;;;8.34;94.25
51986;BME280;38002;53.296;6.600;2023-02-19T00:08:06;101707.50;;;8.35;93.60
51986;BME280;38002;53.296;6.600;2023-02-19T00:13:06;101708.25;;;8.37;93.66
51986;BME280;38002;53.296;6.600;2023-02-19T00:18:07;101710.97;;;8.37;93.75
51986;BME280;38002;53.296;6.600;2023-02-19T00:23:08;101709.22;;;8.36;93.57
51986;BME280;38002;53.296;6.600;2023-02-19T00:28:08;101716.38;;;8.37;93.65
51986;BME280;38002;53.296;6.600;2023-02-19T00:33:08;101709.22;;;8.36;93.96
51986;BME280;38002;53.296;6.600;2023-02-19T00:38:09;101711.78;;;8.37;93.49
51986;BME280;38002;53.296;6.600;2023-02-19T00:43:09;101708.97;;;8.39;93.43
51986;BME280;38002;53.296;6.600;2023-02-19T00:48:10;101716.13;;;8.40;93.87
51986;BME280;38002;53.296;6.600;2023-02-19T00:53:10;101716.13;;;8.40;94.21
51986;BME280;38002;53.296;6.600;2023-02-19T00:58:11;101713.53;;;8.38;94.74
51986;BME280;38002;53.296;6.600;2023-02-19T01:03:11;101710.69;;;8.40;94.36
51986;BME280;38002;53.296;6.600;2023-02-19T01:08:12;101713.66;;;8.37;94.13
51986;BME280;38002;53.296;6.600;2023-02-19T01:13:12;101730.31;;;8.32;94.06
51986;BME280;38002;53.296;6.600;2023-02-19T01:18:12;101755.66;;;8.09;93.81
51986;BME280;38002;53.296;6.600;2023-02-19T01:23:13;101763.06;;;7.85;93.73
51986;BME280;38002;53.296;6.600;2023-02-19T01:28:13;101750.59;;;7.60;93.32
51986;BME280;38002;53.296;6.600;2023-02-19T01:33:14;101749.56;;;7.39;93.72
51986;BME280;38002;53.296;6.600;2023-02-19T01:38:14;101747.94;;;7.25;94.30
51986;BME280;38002;53.296;6.600;2023-02-19T01:43:15;101766.00;;;7.13;94.07
51986;BME280;38002;53.296;6.600;2023-02-19T01:48:34;101773.84;;;7.05;94.26
51986;BME280;38002;53.296;6.600;2023-02-19T01:53:40;101778.88;;;6.99;94.05
51986;BME280;38002;53.296;6.600;2023-02-19T01:58:43;101788.28;;;6.93;94.18
51986;BME280;38002;53.296;6.600;2023-02-19T02:03:46;101785.94;;;6.89;94.57
51986;BME280;38002;53.296;6.600;2023-02-19T02:08:50;101786.03;;;6.87;94.50
51986;BME280;38002;53.296;6.600;2023-02-19T02:14:11;101789.31;;;6.79;94.71
51986;BME280;38002;53.296;6.600;2023-02-19T02:19:32;101779.09;;;6.72;94.73
51986;BME280;38002;53.296;6.600;2023-02-19T02:24:56;101794.03;;;6.65;94.35
51986;BME280;38002;53.296;6.600;2023-02-19T02:30:25;101802.38;;;6.62;94.88
51986;BME280;38002;53.296;6.600;2023-02-19T02:35:33;101807.13;;;6.58;94.54
51986;BME280;38002;53.296;6.600;2023-02-19T02:40:35;101806.50;;;6.55;94.63
51986;BME280;38002;53.296;6.600;2023-02-19T02:45:36;101815.59;;;6.54;94.64
51986;BME280;38002;53.296;6.600;2023-02-19T02:50:43;101828.22;;;6.53;95.02
51986;BME280;38002;53.296;6.600;2023-02-19T02:55:47;101847.16;;;6.53;94.77
51986;BME280;38002;53.296;6.600;2023-02-19T03:00:54;101859.78;;;6.53;95.01
51986;BME280;38002;53.296;6.600;2023-02-19T03:06:16;101869.09;;;6.49;94.84
51986;BME280;38002;53.296;6.600;2023-02-19T03:11:20;101879.50;;;6.42;94.87
51986;BME280;38002;53.296;6.600;2023-02-19T03:16:41;101898.59;;;6.39;94.54
51986;BME280;38002;53.296;6.600;2023-02-19T03:22:16;101894.28;;;6.36;94.95
51986;BME280;38002;53.296;6.600;2023-02-19T03:27:20;101909.72;;;6.34;94.62
51986;BME280;38002;53.296;6.600;2023-02-19T03:32:32;101909.88;;;6.33;95.05
51986;BME280;38002;53.296;6.600;2023-02-19T03:43:25;101934.50;;;6.28;94.74
51986;BME280;38002;53.296;6.600;2023-02-19T03:48:36;101954.47;;;6.26;94.48
51986;BME280;38002;53.296;6.600;2023-02-19T03:59:20;101974.13;;;6.15;94.62
51986;BME280;38002;53.296;6.600;2023-02-19T04:04:28;101977.06;;;6.12;94.69
51986;BME280;38002;53.296;6.600;2023-02-19T04:09:35;101976.19;;;6.12;94.85
51986;BME280;38002;53.296;6.600;2023-02-19T04:14:53;101998.66;;;6.12;94.82
51986;BME280;38002;53.296;6.600;2023-02-19T04:19:58;102008.59;;;6.12;94.67
51986;BME280;38002;53.296;6.600;2023-02-19T04:25:01;102019.50;;;6.10;94.73
51986;BME280;38002;53.296;6.600;2023-02-19T04:30:04;102018.94;;;6.05;94.56
51986;BME280;38002;53.296;6.600;2023-02-19T04:35:05;102037.41;;;5.99;94.11
51986;BME280;38002;53.296;6.600;2023-02-19T04:40:06;102047.63;;;5.93;94.46
51986;BME280;38002;53.296;6.600;2023-02-19T04:45:07;102060.47;;;5.90;94.96
51986;BME280;38002;53.296;6.600;2023-02-19T04:50:07;102068.75;;;5.87;94.28
51986;BME280;38002;53.296;6.600;2023-02-19T04:55:08;102074.34;;;5.84;94.83
51986;BME280;38002;53.296;6.600;2023-02-19T05:00:11;102073.91;;;5.77;94.44
51986;BME280;38002;53.296;6.600;2023-02-19T05:05:12;102095.78;;;5.73;94.14
51986;BME280;38002;53.296;6.600;2023-02-19T05:10:13;102088.88;;;5.69;94.30
51986;BME280;38002;53.296;6.600;2023-02-19T05:15:13;102106.22;;;5.65;94.35
51986;BME280;38002;53.296;6.600;2023-02-19T05:20:14;102111.13;;;5.58;94.14
51986;BME280;38002;53.296;6.600;2023-02-19T05:25:14;102139.19;;;5.56;94.16
51986;BME280;38002;53.296;6.600;2023-02-19T05:30:15;102155.16;;;5.59;94.00
51986;BME280;38002;53.296;6.600;2023-02-19T05:35:15;102164.22;;;5.58;94.44
51986;BME280;38002;53.296;6.600;2023-02-19T05:40:16;102157.94;;;5.57;94.40
51986;BME280;38002;53.296;6.600;2023-02-19T05:45:16;102172.31;;;5.58;93.71
51986;BME280;38002;53.296;6.600;2023-02-19T05:50:17;102176.75;;;5.59;94.98
51986;BME280;38002;53.296;6.600;2023-02-19T05:55:17;102186.59;;;5.60;94.30
51986;BME280;38002;53.296;6.600;2023-02-19T06:00:18;102195.63;;;5.59;94.63
51986;BME280;38002;53.296;6.600;2023-02-19T06:05:19;102203.81;;;5.57;94.32
51986;BME280;38002;53.296;6.600;2023-02-19T06:10:20;102221.94;;;5.55;94.62
51986;BME280;38002;53.296;6.600;2023-02-19T06:15:20;102227.44;;;5.54;94.36
51986;BME280;38002;53.296;6.600;2023-02-19T06:20:21;102246.31;;;5.54;94.57
51986;BME280;38002;53.296;6.600;2023-02-19T06:25:21;102254.41;;;5.54;94.22
51986;BME280;38002;53.296;6.600;2023-02-19T06:30:22;102260.00;;;5.51;94.60
51986;BME280;38002;53.296;6.600;2023-02-19T06:35:22;102271.56;;;5.53;94.40
51986;BME280;38002;53.296;6.600;2023-02-19T06:40:23;102276.13;;;5.52;94.09
51986;BME280;38002;53.296;6.600;2023-02-19T06:45:23;102291.72;;;5.47;93.98
51986;BME280;38002;53.296;6.600;2023-02-19T06:50:24;102303.53;;;5.44;94.40
51986;BME280;38002;53.296;6.600;2023-02-19T06:55:24;102315.19;;;5.45;94.37
51986;BME280;38002;53.296;6.600;2023-02-19T07:00:24;102323.22;;;5.46;94.34
51986;BME280;38002;53.296;6.600;2023-02-19T07:05:25;102334.88;;;5.47;94.31
51986;BME280;38002;53.296;6.600;2023-02-19T07:10:25;102337.66;;;5.45;94.07
51986;BME280;38002;53.296;6.600;2023-02-19T07:15:26;102340.34;;;5.45;94.26
51986;BME280;38002;53.296;6.600;2023-02-19T07:20:26;102329.63;;;5.44;94.26
51986;BME280;38002;53.296;6.600;2023-02-19T07:25:27;102345.06;;;5.42;94.17
51986;BME280;38002;53.296;6.600;2023-02-19T07:30:27;102331.84;;;5.37;94.14
51986;BME280;38002;53.296;6.600;2023-02-19T07:35:28;102324.91;;;5.33;93.83
51986;BME280;38002;53.296;6.600;2023-02-19T07:40:28;102323.38;;;5.29;93.92
51986;BME280;38002;53.296;6.600;2023-02-19T07:45:29;102331.81;;;5.23;93.97
51986;BME280;38002;53.296;6.600;2023-02-19T07:50:29;102334.69;;;5.20;94.16
51986;BME280;38002;53.296;6.600;2023-02-19T07:55:31;102341.03;;;5.19;93.81
51986;BME280;38002;53.296;6.600;2023-02-19T08:00:31;102352.03;;;5.16;94.06
51986;BME280;38002;53.296;6.600;2023-02-19T08:05:35;102374.09;;;5.23;94.22
51986;BME280;38002;53.296;6.600;2023-02-19T08:10:36;102387.50;;;5.24;93.97
51986;BME280;38002;53.296;6.600;2023-02-19T08:16:08;102403.47;;;5.27;94.00
51986;BME280;38002;53.296;6.600;2023-02-19T08:21:09;102402.44;;;5.30;94.03
51986;BME280;38002;53.296;6.600;2023-02-19T08:26:10;102419.22;;;5.35;94.37
51986;BME280;38002;53.296;6.600;2023-02-19T08:31:11;102420.78;;;5.39;94.38
51986;BME280;38002;53.296;6.600;2023-02-19T08:36:11;102432.16;;;5.44;94.35
51986;BME280;38002;53.296;6.600;2023-02-19T08:41:13;102448.47;;;5.57;94.39
51986;BME280;38002;53.296;6.600;2023-02-19T08:46:13;102445.94;;;5.69;94.04
51986;BME280;38002;53.296;6.600;2023-02-19T08:51:14;102470.81;;;5.90;94.45
51986;BME280;38002;53.296;6.600;2023-02-19T08:56:15;102489.94;;;6.15;94.81
51986;BME280;38002;53.296;6.600;2023-02-19T09:01:16;102489.97;;;6.29;93.97
51986;BME280;38002;53.296;6.600;2023-02-19T09:06:20;102508.41;;;6.51;93.80
51986;BME280;38002;53.296;6.600;2023-02-19T09:11:20;102527.63;;;6.61;93.26
51986;BME280;38002;53.296;6.600;2023-02-19T09:16:21;102519.50;;;6.61;92.97
51986;BME280;38002;53.296;6.600;2023-02-19T09:21:21;102532.16;;;6.74;92.63
51986;BME280;38002;53.296;6.600;2023-02-19T09:26:22;102547.44;;;6.90;93.07
51986;BME280;38002;53.296;6.600;2023-02-19T09:31:24;102549.06;;;7.06;92.69
51986;BME280;38002;53.296;6.600;2023-02-19T09:36:24;102549.22;;;7.17;92.52
51986;BME280;38002;53.296;6.600;2023-02-19T09:41:30;102560.81;;;7.19;91.80
51986;BME280;38002;53.296;6.600;2023-02-19T09:46:39;102577.50;;;7.40;92.33
51986;BME280;38002;53.296;6.600;2023-02-19T09:51:47;102567.25;;;7.45;91.40
51986;BME280;38002;53.296;6.600;2023-02-19T09:56:52;102559.69;;;7.50;91.27
51986;BME280;38002;53.296;6.600;2023-02-19T10:02:13;102555.09;;;7.65;91.36
51986;BME280;38002;53.296;6.600;2023-02-19T10:07:23;102579.63;;;7.76;90.47
51986;BME280;38002;53.296;6.600;2023-02-19T10:12:27;102599.19;;;7.67;90.61
51986;BME280;38002;53.296;6.600;2023-02-19T10:17:31;102591.88;;;7.55;89.97
51986;BME280;38002;53.296;6.600;2023-02-19T10:22:35;102615.75;;;7.48;90.77
51986;BME280;38002;53.296;6.600;2023-02-19T10:27:37;102625.34;;;7.40;91.19
51986;BME280;38002;53.296;6.600;2023-02-19T10:32:43;102629.41;;;7.33;90.55
51986;BME280;38002;53.296;6.600;2023-02-19T10:37:57;102627.66;;;7.46;90.82
51986;BME280;38002;53.296;6.600;2023-02-19T10:43:00;102629.31;;;7.89;90.77
51986;BME280;38002;53.296;6.600;2023-02-19T10:48:02;102633.81;;;8.15;89.74
51986;BME280;38002;53.296;6.600;2023-02-19T10:53:02;102635.31;;;8.07;89.09
51986;BME280;38002;53.296;6.600;2023-02-19T10:58:24;102619.31;;;7.90;88.20
51986;BME280;38002;53.296;6.600;2023-02-19T11:03:28;102635.03;;;7.85;89.04
51986;BME280;38002;53.296;6.600;2023-02-19T11:08:29;102647.81;;;8.09;89.14
51986;BME280;38002;53.296;6.600;2023-02-19T11:13:31;102648.09;;;8.58;89.36
51986;BME280;38002;53.296;6.600;2023-02-19T11:18:37;102628.38;;;9.07;88.90
51986;BME280;38002;53.296;6.600;2023-02-19T11:23:45;102627.84;;;9.15;85.40
51986;BME280;38002;53.296;6.600;2023-02-19T11:29:00;102639.69;;;8.88;85.98
51986;BME280;38002;53.296;6.600;2023-02-19T11:49:52;102624.53;;;9.47;84.17
51986;BME280;38002;53.296;6.600;2023-02-19T12:06:24;102619.00;;;10.79;83.05
51986;BME280;38002;53.296;6.600;2023-02-19T12:11:37;102629.69;;;10.47;82.96
51986;BME280;38002;53.296;6.600;2023-02-19T12:22:44;102638.63;;;9.89;83.79
51986;BME280;38002;53.296;6.600;2023-02-19T12:28:15;102643.19;;;9.65;82.86
51986;BME280;38002;53.296;6.600;2023-02-19T12:38:31;102661.25;;;9.40;84.42
51986;BME280;38002;53.296;6.600;2023-02-19T12:43:36;102664.59;;;9.56;84.63
51986;BME280;38002;53.296;6.600;2023-02-19T12:53:47;102668.34;;;9.79;83.72
51986;BME280;38002;53.296;6.600;2023-02-19T12:58:53;102675.88;;;9.63;83.43
51986;BME280;38002;53.296;6.600;2023-02-19T13:09:09;102718.59;;;9.36;83.73
51986;BME280;38002;53.296;6.600;2023-02-19T13:14:27;102708.25;;;9.28;83.86
51986;BME280;38002;53.296;6.600;2023-02-19T13:19:29;102716.88;;;9.22;84.16
51986;BME280;38002;53.296;6.600;2023-02-19T13:24:35;102705.56;;;9.16;84.02
51986;BME280;38002;53.296;6.600;2023-02-19T13:34:54;102705.88;;;9.11;84.53
51986;BME280;38002;53.296;6.600;2023-02-19T13:40:51;102698.84;;;9.21;82.91
51986;BME280;38002;53.296;6.600;2023-02-19T13:50:33;102680.22;;;9.66;83.31
51986;BME280;38002;53.296;6.600;2023-02-19T13:55:47;102670.91;;;9.93;82.31
51986;BME280;38002;53.296;6.600;2023-02-19T14:00:51;102655.06;;;10.11;81.90
51986;BME280;38002;53.296;6.600;2023-02-19T14:06:11;102641.09;;;10.28;81.23
51986;BME280;38002;53.296;6.600;2023-02-19T14:11:12;102618.66;;;10.37;81.71
51986;BME280;38002;53.296;6.600;2023-02-19T14:16:47;102630.44;;;10.49;76.92
51986;BME280;38002;53.296;6.600;2023-02-19T14:21:48;102619.69;;;10.48;80.96
51986;BME280;38002;53.296;6.600;2023-02-19T14:26:49;102619.28;;;10.41;80.93
51986;BME280;38002;53.296;6.600;2023-02-19T14:31:49;102625.91;;;10.26;81.04
51986;BME280;38002;53.296;6.600;2023-02-19T14:37:00;102614.00;;;10.03;79.99
51986;BME280;38002;53.296;6.600;2023-02-19T14:42:05;102626.25;;;9.85;80.55
51986;BME280;38002;53.296;6.600;2023-02-19T14:47:13;102626.78;;;9.66;80.83
51986;BME280;38002;53.296;6.600;2023-02-19T14:57:26;102647.16;;;9.35;81.36
51986;BME280;38002;53.296;6.600;2023-02-19T15:02:29;102639.13;;;9.21;80.55
51986;BME280;38002;53.296;6.600;2023-02-19T15:07:32;102637.84;;;9.01;80.51
51986;BME280;38002;53.296;6.600;2023-02-19T15:12:40;102654.09;;;8.89;80.95
51986;BME280;38002;53.296;6.600;2023-02-19T15:17:43;102653.09;;;8.77;81.12
51986;BME280;38002;53.296;6.600;2023-02-19T15:22:44;102649.09;;;8.70;81.45
51986;BME280;38002;53.296;6.600;2023-02-19T15:27:46;102647.00;;;8.61;81.58
51986;BME280;38002;53.296;6.600;2023-02-19T15:32:54;102647.22;;;8.58;81.16
51986;BME280;38002;53.296;6.600;2023-02-19T15:37:55;102654.03;;;8.51;81.48
51986;BME280;38002;53.296;6.600;2023-02-19T15:42:57;102676.25;;;8.43;81.02
51986;BME280;38002;53.296;6.600;2023-02-19T15:48:10;102644.34;;;8.34;80.22
51986;BME280;38002;53.296;6.600;2023-02-19T15:53:20;102637.56;;;8.27;81.43
51986;BME280;38002;53.296;6.600;2023-02-19T15:58:29;102659.00;;;8.17;81.38
51986;BME280;38002;53.296;6.600;2023-02-19T16:03:32;102663.72;;;8.01;81.25
51986;BME280;38002;53.296;6.600;2023-02-19T16:08:37;102672.66;;;7.89;81.85
51986;BME280;38002;53.296;6.600;2023-02-19T16:13:38;102695.88;;;7.79;81.91
51986;BME280;38002;53.296;6.600;2023-02-19T16:18:45;102693.97;;;7.67;82.04
51986;BME280;38002;53.296;6.600;2023-02-19T16:23:48;102689.50;;;7.52;82.25
51986;BME280;38002;53.296;6.600;2023-02-19T16:28:52;102699.50;;;7.37;81.69
51986;BME280;38002;53.296;6.600;2023-02-19T16:33:53;102699.69;;;7.20;82.14
51986;BME280;38002;53.296;6.600;2023-02-19T16:49:32;102697.66;;;6.79;82.11
51986;BME280;38002;53.296;6.600;2023-02-19T16:54:32;102686.53;;;6.70;82.32
51986;BME280;38002;53.296;6.600;2023-02-19T16:59:32;102681.66;;;6.61;82.54
51986;BME280;38002;53.296;6.600;2023-02-19T17:04:33;102689.38;;;6.53;82.74
51986;BME280;38002;53.296;6.600;2023-02-19T17:09:34;102688.00;;;6.46;82.30
51986;BME280;38002;53.296;6.600;2023-02-19T17:14:34;102691.25;;;6.36;82.64
51986;BME280;38002;53.296;6.600;2023-02-19T17:19:35;102704.22;;;6.30;82.65
51986;BME280;38002;53.296;6.600;2023-02-19T17:24:35;102707.31;;;6.24;82.88
51986;BME280;38002;53.296;6.600;2023-02-19T17:29:36;102703.31;;;6.15;83.24
51986;BME280;38002;53.296;6.600;2023-02-19T17:34:37;102710.03;;;6.08;83.54
51986;BME280;38002;53.296;6.600;2023-02-19T17:39:37;102722.91;;;6.03;83.40
51986;BME280;38002;53.296;6.600;2023-02-19T17:44:38;102705.69;;;5.90;83.64
51986;BME280;38002;53.296;6.600;2023-02-19T17:49:38;102713.91;;;5.87;83.88
51986;BME280;38002;53.296;6.600;2023-02-19T17:54:39;102711.63;;;5.79;84.10
51986;BME280;38002;53.296;6.600;2023-02-19T17:59:39;102715.91;;;5.68;84.19
51986;BME280;38002;53.296;6.600;2023-02-19T18:04:39;102711.19;;;5.56;83.91
51986;BME280;38002;53.296;6.600;2023-02-19T18:09:40;102711.50;;;5.49;84.66
51986;BME280;38002;53.296;6.600;2023-02-19T18:14:44;102682.00;;;5.46;84.69
51986;BME280;38002;53.296;6.600;2023-02-19T18:19:44;102690.09;;;5.46;84.71
51986;BME280;38002;53.296;6.600;2023-02-19T18:24:50;102679.50;;;5.43;84.70
51986;BME280;38002;53.296;6.600;2023-02-19T18:29:52;102675.91;;;5.43;85.00
51986;BME280;38002;53.296;6.600;2023-02-19T18:34:53;102677.81;;;5.41;85.81
51986;BME280;38002;53.296;6.600;2023-02-19T18:39:54;102681.31;;;5.43;85.24
51986;BME280;38002;53.296;6.600;2023-02-19T18:44:55;102684.88;;;5.43;85.16
51986;BME280;38002;53.296;6.600;2023-02-19T18:49:57;102691.13;;;5.44;85.25
51986;BME280;38002;53.296;6.600;2023-02-19T18:54:58;102687.41;;;5.46;85.20
51986;BME280;38002;53.296;6.600;2023-02-19T18:59:59;102695.50;;;5.46;85.46
51986;BME280;38002;53.296;6.600;2023-02-19T19:05:00;102693.69;;;5.47;86.00
51986;BME280;38002;53.296;6.600;2023-02-19T19:10:00;102680.25;;;5.45;85.80
51986;BME280;38002;53.296;6.600;2023-02-19T19:15:01;102688.34;;;5.45;85.86
51986;BME280;38002;53.296;6.600;2023-02-19T19:20:02;102668.53;;;5.46;86.06
51986;BME280;38002;53.296;6.600;2023-02-19T19:25:03;102659.00;;;5.39;86.56
51986;BME280;38002;53.296;6.600;2023-02-19T19:30:04;102661.88;;;5.36;87.05
51986;BME280;38002;53.296;6.600;2023-02-19T19:35:05;102651.28;;;5.33;86.23
51986;BME280;38002;53.296;6.600;2023-02-19T19:40:07;102650.31;;;5.34;85.98
51986;BME280;38002;53.296;6.600;2023-02-19T19:45:07;102643.00;;;5.36;85.86
51986;BME280;38002;53.296;6.600;2023-02-19T19:50:10;102635.72;;;5.38;85.90
51986;BME280;38002;53.296;6.600;2023-02-19T19:55:13;102631.19;;;5.39;86.08
51986;BME280;38002;53.296;6.600;2023-02-19T20:00:16;102635.78;;;5.37;86.06
51986;BME280;38002;53.296;6.600;2023-02-19T20:05:17;102611.84;;;5.31;86.66
51986;BME280;38002;53.296;6.600;2023-02-19T20:10:18;102613.84;;;5.27;86.19
51986;BME280;38002;53.296;6.600;2023-02-19T20:15:20;102614.00;;;5.24;86.04
51986;BME280;38002;53.296;6.600;2023-02-19T20:20:21;102603.41;;;5.21;86.09
51986;BME280;38002;53.296;6.600;2023-02-19T20:25:22;102596.25;;;5.20;85.40
51986;BME280;38002;53.296;6.600;2023-02-19T20:30:23;102591.06;;;5.17;85.73
51986;BME280;38002;53.296;6.600;2023-02-19T20:35:24;102565.97;;;5.15;85.81
51986;BME280;38002;53.296;6.600;2023-02-19T20:40:27;102580.28;;;5.17;86.16
51986;BME280;38002;53.296;6.600;2023-02-19T20:45:30;102581.91;;;5.20;85.32
51986;BME280;38002;53.296;6.600;2023-02-19T20:50:30;102587.22;;;5.21;85.80
51986;BME280;38002;53.296;6.600;2023-02-19T20:55:31;102608.53;;;5.26;85.68
51986;BME280;38002;53.296;6.600;2023-02-19T21:00:32;102626.56;;;5.25;85.52
51986;BME280;38002;53.296;6.600;2023-02-19T21:05:32;102647.06;;;5.28;85.76
51986;BME280;38002;53.296;6.600;2023-02-19T21:10:33;102630.00;;;5.27;85.64
51986;BME280;38002;53.296;6.600;2023-02-19T21:15:33;102624.63;;;5.27;85.85
51986;BME280;38002;53.296;6.600;2023-02-19T21:20:34;102624.63;;;5.27;86.07
51986;BME280;38002;53.296;6.600;2023-02-19T21:25:35;102637.34;;;5.25;86.24
51986;BME280;38002;53.296;6.600;2023-02-19T21:30:35;102631.31;;;5.20;86.35
51986;BME280;38002;53.296;6.600;2023-02-19T21:35:36;102627.13;;;5.15;86.45
51986;BME280;38002;53.296;6.600;2023-02-19T21:40:36;102626.88;;;5.19;86.86
51986;BME280;38002;53.296;6.600;2023-02-19T21:45:37;102616.97;;;5.20;86.46
51986;BME280;38002;53.296;6.600;2023-02-19T21:50:37;102614.28;;;5.20;86.43
51986;BME280;38002;53.296;6.600;2023-02-19T21:55:39;102616.09;;;5.19;86.49
51986;BME280;38002;53.296;6.600;2023-02-19T22:00:39;102612.63;;;5.17;87.93
51986;BME280;38002;53.296;6.600;2023-02-19T22:05:40;102606.19;;;5.20;86.91
51986;BME280;38002;53.296;6.600;2023-02-19T22:10:40;102606.00;;;5.23;87.35
51986;BME280;38002;53.296;6.600;2023-02-19T22:15:41;102591.50;;;5.25;87.32
51986;BME280;38002;53.296;6.600;2023-02-19T22:20:42;102602.09;;;5.28;88.12
51986;BME280;38002;53.296;6.600;2023-02-19T22:25:42;102579.56;;;5.29;88.28
51986;BME280;38002;53.296;6.600;2023-02-19T22:30:43;102578.44;;;5.33;87.97
51986;BME280;38002;53.296;6.600;2023-02-19T22:35:43;102572.00;;;5.36;87.89
51986;BME280;38002;53.296;6.600;2023-02-19T22:40:43;102568.28;;;5.38;87.65
51986;BME280;38002;53.296;6.600;2023-02-19T22:45:44;102555.66;;;5.39;87.83
51986;BME280;38002;53.296;6.600;2023-02-19T22:50:44;102536.66;;;5.40;88.30
51986;BME280;38002;53.296;6.600;2023-02-19T22:55:45;102528.41;;;5.43;90.16
51986;BME280;38002;53.296;6.600;2023-02-19T23:00:45;102518.41;;;5.45;89.33
51986;BME280;38002;53.296;6.600;2023-02-19T23:05:46;102512.91;;;5.47;89.21
51986;BME280;38002;53.296;6.600;2023-02-19T23:10:48;102502.81;;;5.51;89.93
51986;BME280;38002;53.296;6.600;2023-02-19T23:15:49;102495.31;;;5.56;90.78
51986;BME280;38002;53.296;6.600;2023-02-19T23:20:49;102491.56;;;5.58;89.72
51986;BME280;38002;53.296;6.600;2023-02-19T23:25:50;102475.09;;;5.63;89.74
51986;BME280;38002;53.296;6.600;2023-02-19T23:30:50;102472.31;;;5.64;89.64
51986;BME280;38002;53.296;6.600;2023-02-19T23:35:51;102464.22;;;5.64;89.81
51986;BME280;38002;53.296;6.600;2023-02-19T23:40:51;102453.59;;;5.61;89.51
51986;BME280;38002;53.296;6.600;2023-02-19T23:45:53;102445.63;;;5.60;89.32
51986;BME280;38002;53.296;6.600;2023-02-19T23:50:54;102438.47;;;5.59;89.43
51986;BME280;38002;53.296;6.600;2023-02-19T23:55:54;102421.34;;;5.60;89.96
